createdAt,value
2022-08-19T00:00:43.720Z,100949.38
2022-08-19T00:02:15.394Z,100952.69
2022-08-19T00:03:48.680Z,100947.25
2022-08-19T00:05:22.350Z,100954.94
2022-08-19T00:06:54.278Z,100954.72
2022-08-19T00:08:26.633Z,100952.78
2022-08-19T00:09:58.324Z,100956.56
2022-08-19T00:11:30.072Z,100958.66
2022-08-19T00:13:01.747Z,100957.91
2022-08-19T00:14:33.490Z,100956.56
2022-08-19T00:16:06.792Z,100955.31
2022-08-19T00:17:38.530Z,100953.63
2022-08-19T00:19:15.767Z,100962.38
2022-08-19T00:20:47.542Z,100954.59
2022-08-19T00:22:19.425Z,100953.63
2022-08-19T00:23:51.334Z,100961.19
2022-08-19T00:25:30.442Z,100956.31
2022-08-19T00:27:24.862Z,100948.97
2022-08-19T00:28:55.268Z,100940.97
2022-08-19T00:30:28.721Z,100943.53
2022-08-19T00:32:00.776Z,100944.56
2022-08-19T00:33:33.427Z,100943.28
2022-08-19T00:35:07.877Z,100935.63
2022-08-19T00:36:40.251Z,100943.31
2022-08-19T00:38:11.973Z,100943.44
2022-08-19T00:39:43.796Z,100940.63
2022-08-19T00:41:18.295Z,100939.41
2022-08-19T00:42:49.989Z,100943.22
2022-08-19T00:44:26.703Z,100949.53
2022-08-19T00:45:58.857Z,100948.81
2022-08-19T00:47:30.611Z,100945.28
2022-08-19T00:49:15.766Z,100940.03
2022-08-19T00:50:52.240Z,100943.91
2022-08-19T00:52:27.985Z,100945.63
2022-08-19T00:54:02.022Z,100941.25
2022-08-19T00:55:34.377Z,100941.97
2022-08-19T00:57:08.709Z,100933.94
2022-08-19T00:58:41.837Z,100932.97
2022-08-19T01:00:19.736Z,100923.00
2022-08-19T01:01:51.675Z,100929.44
2022-08-19T01:03:23.802Z,100928.09
2022-08-19T01:04:56.287Z,100937.25
2022-08-19T01:06:29.461Z,100943.94
2022-08-19T01:08:04.388Z,100946.47
2022-08-19T01:09:36.860Z,100947.81
2022-08-19T01:11:09.372Z,100950.75
2022-08-19T01:12:42.331Z,100952.91
2022-08-19T01:14:15.019Z,100942.69
2022-08-19T01:15:51.206Z,100933.47
2022-08-19T01:17:23.052Z,100929.69
2022-08-19T01:18:54.793Z,100935.91
2022-08-19T01:20:26.748Z,100928.22
2022-08-19T01:22:14.425Z,100932.72
2022-08-19T01:23:50.202Z,100935.16
2022-08-19T01:25:27.804Z,100933.94
2022-08-19T01:27:00.756Z,100932.94
2022-08-19T01:28:39.707Z,100934.41
2022-08-19T01:30:14.252Z,100934.19
2022-08-19T01:31:46.012Z,100923.50
2022-08-19T01:33:18.433Z,100931.53
2022-08-19T01:34:50.078Z,100932.50
2022-08-19T01:36:26.475Z,100927.22
2022-08-19T01:38:02.528Z,100924.56
2022-08-19T01:39:35.708Z,100931.72
2022-08-19T01:41:11.176Z,100921.25
2022-08-19T01:42:43.100Z,100932.81
2022-08-19T01:44:18.806Z,100931.00
2022-08-19T01:45:51.943Z,100927.59
2022-08-19T01:47:23.831Z,100930.41
2022-08-19T01:48:55.480Z,100927.88
2022-08-19T01:50:27.408Z,100932.25
2022-08-19T01:52:01.103Z,100928.72
2022-08-19T01:53:33.765Z,100932.38
2022-08-19T01:55:09.604Z,100932.47
2022-08-19T01:56:41.295Z,100931.75
2022-08-19T01:58:15.877Z,100927.25
2022-08-19T01:59:47.726Z,100924.44
2022-08-19T02:01:20.219Z,100925.19
2022-08-19T02:02:52.062Z,100920.69
2022-08-19T02:04:24.395Z,100922.75
2022-08-19T02:05:57.054Z,100923.97
2022-08-19T02:07:30.128Z,100921.06
2022-08-19T02:09:03.500Z,100918.13
2022-08-19T02:10:40.128Z,100929.81
2022-08-19T02:12:11.966Z,100923.09
2022-08-19T02:13:43.783Z,100918.72
2022-08-19T02:15:15.657Z,100918.91
2022-08-19T02:16:47.356Z,100922.31
2022-08-19T02:18:19.072Z,100926.19
2022-08-19T02:19:51.025Z,100930.78
2022-08-19T02:21:24.025Z,100938.69
2022-08-19T02:22:55.842Z,100936.25
2022-08-19T02:24:28.413Z,100936.09
2022-08-19T02:26:01.433Z,100931.50
2022-08-19T02:27:34.323Z,100934.16
2022-08-19T02:29:06.405Z,100940.09
2022-08-19T02:30:39.132Z,100941.06
2022-08-19T02:32:10.794Z,100932.56
2022-08-19T02:33:42.881Z,100935.38
2022-08-19T02:35:15.165Z,100935.22
2022-08-19T02:36:50.596Z,100937.59
2022-08-19T02:38:26.421Z,100938.03
2022-08-19T02:39:58.793Z,100937.03
2022-08-19T02:41:34.428Z,100938.88
2022-08-19T02:43:09.370Z,100939.78
2022-08-19T02:44:41.022Z,100938.75
2022-08-19T02:46:14.881Z,100944.75
2022-08-19T02:47:46.567Z,100951.16
2022-08-19T02:49:18.871Z,100950.19
2022-08-19T02:50:56.087Z,100951.16
2022-08-19T02:52:28.285Z,100951.59
2022-08-19T02:54:00.868Z,100942.41
2022-08-19T02:55:32.627Z,100952.50
2022-08-19T02:57:19.077Z,100957.06
2022-08-19T02:58:51.110Z,100957.25
2022-08-19T03:00:25.061Z,100968.34
2022-08-19T03:01:56.740Z,100952.72
2022-08-19T03:03:28.673Z,100960.16
2022-08-19T03:05:00.386Z,100964.84
2022-08-19T03:06:33.013Z,100962.53
2022-08-19T03:08:05.121Z,100964.75
2022-08-19T03:09:38.672Z,100958.09
2022-08-19T03:11:14.947Z,100956.16
2022-08-19T03:12:48.019Z,100955.94
2022-08-19T03:14:20.088Z,100957.63
2022-08-19T03:15:51.948Z,100954.84
2022-08-19T03:17:24.497Z,100955.47
2022-08-19T03:19:00.857Z,100954.72
2022-08-19T03:20:32.517Z,100961.97
2022-08-19T03:22:05.441Z,100955.84
2022-08-19T03:23:37.388Z,100962.09
2022-08-19T03:25:10.019Z,100959.91
2022-08-19T03:26:44.106Z,100952.09
2022-08-19T03:28:17.348Z,100958.75
2022-08-19T03:29:49.091Z,100960.03
2022-08-19T03:31:44.462Z,100958.53
2022-08-19T03:33:18.003Z,100955.13
2022-08-19T03:34:51.837Z,100955.53
2022-08-19T03:36:25.665Z,100963.00
2022-08-19T03:37:59.344Z,100957.22
2022-08-19T03:39:31.605Z,100962.22
2022-08-19T03:41:07.223Z,100957.66
2022-08-19T03:42:48.813Z,100960.88
2022-08-19T03:44:33.313Z,100965.16
2022-08-19T03:46:07.559Z,100965.22
2022-08-19T03:47:39.471Z,100959.13
2022-08-19T03:49:11.139Z,100956.47
2022-08-19T03:50:46.135Z,100961.81
2022-08-19T03:52:17.881Z,100957.03
2022-08-19T03:53:49.970Z,100960.28
2022-08-19T03:55:21.613Z,100950.78
2022-08-19T03:56:55.156Z,100953.53
2022-08-19T03:58:29.584Z,100952.47
2022-08-19T04:00:13.267Z,100959.81
2022-08-19T04:01:45.882Z,100948.81
2022-08-19T04:03:19.599Z,100956.72
2022-08-19T04:04:55.192Z,100966.06
2022-08-19T04:06:29.328Z,100961.69
2022-08-19T04:08:01.473Z,100958.16
2022-08-19T04:09:34.437Z,100952.34
2022-08-19T04:11:08.833Z,100954.78
2022-08-19T04:12:40.511Z,100956.22
2022-08-19T04:14:15.047Z,100958.44
2022-08-19T04:15:48.301Z,100956.75
2022-08-19T04:17:19.984Z,100959.19
2022-08-19T04:18:51.737Z,100961.00
2022-08-19T04:20:23.406Z,100967.41
2022-08-19T04:21:56.267Z,100953.13
2022-08-19T04:23:29.077Z,100958.69
2022-08-19T04:25:01.086Z,100951.41
2022-08-19T04:26:35.719Z,100963.19
2022-08-19T04:28:08.020Z,100959.75
2022-08-19T04:29:41.284Z,100960.16
2022-08-19T04:31:16.496Z,100962.31
2022-08-19T04:32:48.160Z,100965.38
2022-08-19T04:34:24.971Z,100969.81
2022-08-19T04:35:57.574Z,100963.94
2022-08-19T04:37:35.126Z,100966.38
2022-08-19T04:39:09.119Z,100974.78
2022-08-19T04:41:00.864Z,100970.72
2022-08-19T04:42:41.632Z,100970.53
2022-08-19T04:44:13.972Z,100970.28
2022-08-19T04:45:46.169Z,100970.06
2022-08-19T04:47:19.293Z,100968.13
2022-08-19T04:49:13.611Z,100972.50
2022-08-19T04:50:45.664Z,100980.53
2022-08-19T04:52:17.381Z,100981.16
2022-08-19T04:53:49.083Z,100991.47
2022-08-19T04:55:20.836Z,100996.59
2022-08-19T04:56:53.763Z,100990.59
2022-08-19T04:58:27.425Z,100992.06
2022-08-19T04:59:59.129Z,100993.53
2022-08-19T05:01:33.854Z,100996.63
2022-08-19T05:03:07.604Z,101004.03
2022-08-19T05:04:40.404Z,100999.69
2022-08-19T05:06:14.703Z,101001.97
2022-08-19T05:07:46.467Z,100999.59
2022-08-19T05:09:18.483Z,101008.63
2022-08-19T05:10:51.919Z,101008.72
2022-08-19T05:12:26.753Z,101007.50
2022-08-19T05:14:02.281Z,101013.69
2022-08-19T05:15:34.035Z,101015.13
2022-08-19T05:17:26.227Z,101014.47
2022-08-19T05:19:17.589Z,101019.78
2022-08-19T05:21:08.081Z,101024.63
2022-08-19T05:22:40.138Z,101024.13
2022-08-19T05:24:13.558Z,101025.22
2022-08-19T05:25:45.364Z,101025.22
2022-08-19T05:27:17.098Z,101025.22
2022-08-19T05:28:51.948Z,101025.22
2022-08-19T05:30:42.357Z,101022.78
2022-08-19T05:32:18.070Z,101022.88
2022-08-19T05:33:50.317Z,101026.34
2022-08-19T05:35:24.980Z,101031.38
2022-08-19T05:36:58.954Z,101032.59
2022-08-19T05:38:30.972Z,101031.03
2022-08-19T05:40:03.745Z,101028.13
2022-08-19T05:41:35.554Z,101030.25
2022-08-19T05:43:08.532Z,101025.97
2022-08-19T05:44:46.256Z,101016.94
2022-08-19T05:46:19.311Z,101023.41
2022-08-19T05:47:59.696Z,101023.50
2022-08-19T05:49:33.825Z,101027.97
2022-08-19T05:51:09.070Z,101023.09
2022-08-19T05:52:45.863Z,101036.59
2022-08-19T05:54:23.912Z,101033.44
2022-08-19T05:55:55.614Z,101031.94
2022-08-19T05:57:29.835Z,101035.09
2022-08-19T05:59:01.941Z,101032.06
2022-08-19T06:00:33.614Z,101036.03
2022-08-19T06:02:07.547Z,101032.97
2022-08-19T06:03:40.452Z,101029.19
2022-08-19T06:05:12.573Z,101028.09
2022-08-19T06:06:46.048Z,101023.59
2022-08-19T06:08:19.212Z,101036.59
2022-08-19T06:10:00.620Z,101029.38
2022-08-19T06:11:35.798Z,101024.94
2022-08-19T06:13:07.484Z,101025.47
2022-08-19T06:14:41.668Z,101022.22
2022-08-19T06:16:13.841Z,101019.81
2022-08-19T06:17:45.552Z,101020.06
2022-08-19T06:19:20.226Z,101019.34
2022-08-19T06:20:55.751Z,101017.88
2022-08-19T06:22:29.204Z,101019.41
2022-08-19T06:24:01.149Z,101014.03
2022-08-19T06:25:32.934Z,101023.59
2022-08-19T06:27:06.649Z,101014.34
2022-08-19T06:28:43.604Z,101021.66
2022-08-19T06:30:16.233Z,101012.31
2022-08-19T06:31:52.558Z,101015.66
2022-08-19T06:33:24.298Z,101015.91
2022-08-19T06:34:56.027Z,101018.22
2022-08-19T06:36:32.560Z,101015.53
2022-08-19T06:38:06.030Z,101022.19
2022-08-19T06:39:40.816Z,101025.09
2022-08-19T06:41:12.549Z,101016.28
2022-08-19T06:42:45.212Z,101024.56
2022-08-19T06:44:29.246Z,101027.69
2022-08-19T06:46:04.621Z,101022.59
2022-08-19T06:47:38.048Z,101028.22
2022-08-19T06:49:14.401Z,101025.31
2022-08-19T06:50:46.155Z,101019.03
2022-08-19T06:52:17.959Z,101024.88
2022-08-19T06:53:53.151Z,101030.97
2022-08-19T06:55:25.141Z,101036.00
2022-08-19T06:56:57.332Z,101036.00
2022-08-19T06:58:32.962Z,101033.34
2022-08-19T07:00:12.252Z,101041.00
2022-08-19T07:01:49.627Z,101041.13
2022-08-19T07:03:22.070Z,101042.47
2022-08-19T07:04:54.111Z,101038.41
2022-08-19T07:06:43.739Z,101040.25
2022-08-19T07:08:16.191Z,101043.06
2022-08-19T07:09:59.054Z,101036.47
2022-08-19T07:11:33.509Z,101036.34
2022-08-19T07:13:06.860Z,101036.13
2022-08-19T07:14:40.158Z,101037.84
2022-08-19T07:16:14.605Z,101036.75
2022-08-19T07:17:52.515Z,101039.88
2022-08-19T07:19:28.041Z,101047.16
2022-08-19T07:21:05.196Z,101046.41
2022-08-19T07:22:41.479Z,101045.47
2022-08-19T07:24:13.363Z,101051.81
2022-08-19T07:25:52.938Z,101048.59
2022-08-19T07:27:24.964Z,101045.25
2022-08-19T07:28:58.509Z,101051.94
2022-08-19T07:30:30.688Z,101041.81
2022-08-19T07:32:04.755Z,101054.47
2022-08-19T07:33:37.536Z,101057.47
2022-08-19T07:35:10.449Z,101060.34
2022-08-19T07:36:44.639Z,101064.06
2022-08-19T07:38:17.051Z,101056.59
2022-08-19T07:39:49.213Z,101064.41
2022-08-19T07:41:24.314Z,101065.19
2022-08-19T07:42:56.036Z,101060.88
2022-08-19T07:44:28.151Z,101055.88
2022-08-19T07:45:59.907Z,101062.53
2022-08-19T07:47:47.867Z,101072.41
2022-08-19T07:49:23.266Z,101065.94
2022-08-19T07:50:57.931Z,101068.22
2022-08-19T07:52:29.952Z,101073.22
2022-08-19T07:54:01.726Z,101074.78
2022-08-19T07:55:42.684Z,101075.38
2022-08-19T07:57:17.669Z,101089.28
2022-08-19T07:58:51.814Z,101090.00
2022-08-19T08:00:24.427Z,101087.31
2022-08-19T08:01:57.763Z,101092.91
2022-08-19T08:03:48.866Z,101093.78
2022-08-19T08:05:43.007Z,101098.06
2022-08-19T08:07:34.397Z,101101.28
2022-08-19T08:09:13.153Z,101104.22
2022-08-19T08:10:52.965Z,101098.59
2022-08-19T08:12:34.514Z,101103.16
2022-08-19T08:14:07.580Z,101097.13
2022-08-19T08:15:59.269Z,101099.28
2022-08-19T08:17:49.837Z,101100.97
2022-08-19T08:19:25.644Z,101101.75
2022-08-19T08:20:58.655Z,101100.09
2022-08-19T08:22:56.604Z,101099.13
2022-08-19T08:24:31.547Z,101106.50
2022-08-19T08:26:04.630Z,101098.03
2022-08-19T08:27:40.451Z,101098.38
2022-08-19T08:29:13.566Z,101100.06
2022-08-19T08:30:48.394Z,101098.38
2022-08-19T08:32:20.902Z,101106.75
2022-08-19T08:33:52.868Z,101104.59
2022-08-19T08:35:25.154Z,101108.06
2022-08-19T08:36:56.880Z,101104.38
2022-08-19T08:38:29.844Z,101113.72
2022-08-19T08:40:18.289Z,101117.84
2022-08-19T08:41:58.986Z,101104.97
2022-08-19T08:43:35.800Z,101111.22
2022-08-19T08:45:15.782Z,101109.50
2022-08-19T08:46:50.423Z,101112.19
2022-08-19T08:48:34.175Z,101120.88
2022-08-19T08:50:12.150Z,101106.72
2022-08-19T08:51:48.796Z,101112.03
2022-08-19T08:53:35.528Z,101110.66
2022-08-19T08:55:13.586Z,101103.94
2022-08-19T08:56:46.947Z,101100.75
2022-08-19T08:58:25.280Z,101100.38
2022-08-19T09:00:01.375Z,101100.72
2022-08-19T09:01:33.382Z,101095.91
2022-08-19T09:03:15.693Z,101095.88
2022-08-19T09:04:50.363Z,101096.97
2022-08-19T09:06:30.263Z,101094.41
2022-08-19T09:08:07.860Z,101102.66
2022-08-19T09:09:43.040Z,101091.34
2022-08-19T09:11:42.870Z,101093.63
2022-08-19T09:13:28.329Z,101098.50
2022-08-19T09:15:07.027Z,101092.56
2022-08-19T09:16:41.234Z,101102.78
2022-08-19T09:18:15.369Z,101105.19
2022-08-19T09:19:54.140Z,101095.97
2022-08-19T09:21:33.007Z,101098.81
2022-08-19T09:23:06.198Z,101097.84
2022-08-19T09:24:37.986Z,101098.94
2022-08-19T09:26:14.342Z,101098.41
2022-08-19T09:27:50.090Z,101095.16
2022-08-19T09:29:22.477Z,101090.06
2022-08-19T09:30:55.884Z,101086.66
2022-08-19T09:32:28.452Z,101094.59
2022-08-19T09:34:00.436Z,101088.59
2022-08-19T09:35:33.106Z,101100.50
2022-08-19T09:37:22.697Z,101091.44
2022-08-19T09:38:57.440Z,101094.16
2022-08-19T09:40:34.377Z,101089.19
2022-08-19T09:42:16.410Z,101096.84
2022-08-19T09:43:54.756Z,101094.09
2022-08-19T09:45:26.476Z,101093.72
2022-08-19T09:46:59.589Z,101092.47
2022-08-19T09:48:31.413Z,101088.22
2022-08-19T09:50:03.574Z,101092.56
2022-08-19T09:51:35.921Z,101090.56
2022-08-19T09:53:09.210Z,101081.63
2022-08-19T09:54:41.207Z,101089.72
2022-08-19T09:56:15.976Z,101086.56
2022-08-19T09:57:54.480Z,101086.84
2022-08-19T09:59:26.430Z,101079.88
2022-08-19T10:00:59.568Z,101084.00
2022-08-19T10:02:33.113Z,101085.00
2022-08-19T10:04:19.782Z,101085.41
2022-08-19T10:05:55.470Z,101090.09
2022-08-19T10:07:28.985Z,101092.78
2022-08-19T10:09:10.653Z,101090.47
2022-08-19T10:10:46.574Z,101078.72
2022-08-19T10:12:20.301Z,101090.59
2022-08-19T10:13:52.140Z,101087.88
2022-08-19T10:15:29.260Z,101086.56
2022-08-19T10:17:04.701Z,101083.28
2022-08-19T10:18:51.979Z,101088.38
2022-08-19T10:20:31.088Z,101082.66
2022-08-19T10:22:10.063Z,101082.47
2022-08-19T10:23:46.536Z,101082.50
2022-08-19T10:25:18.823Z,101082.63
2022-08-19T10:26:55.897Z,101075.09
2022-08-19T10:28:30.809Z,101082.00
2022-08-19T10:30:02.913Z,101069.34
2022-08-19T10:32:01.295Z,101065.53
2022-08-19T10:33:53.178Z,101070.66
2022-08-19T10:35:22.203Z,101062.53
2022-08-19T10:37:00.527Z,101069.22
2022-08-19T10:38:34.751Z,101066.03
2022-08-19T10:40:08.795Z,101070.66
2022-08-19T10:41:41.174Z,101069.75
2022-08-19T10:43:12.889Z,101075.56
2022-08-19T10:44:44.678Z,101077.31
2022-08-19T10:46:16.907Z,101075.16
2022-08-19T10:47:48.861Z,101077.97
2022-08-19T10:49:20.766Z,101071.69
2022-08-19T10:51:22.647Z,101075.13
2022-08-19T10:52:55.184Z,101074.69
2022-08-19T10:54:48.627Z,101069.47
2022-08-19T10:56:39.496Z,101074.63
2022-08-19T10:58:13.182Z,101060.78
2022-08-19T10:59:45.283Z,101066.81
2022-08-19T11:01:17.191Z,101074.63
2022-08-19T11:02:49.015Z,101065.25
2022-08-19T11:04:21.548Z,101062.69
2022-08-19T11:06:03.625Z,101065.88
2022-08-19T11:07:35.323Z,101055.56
2022-08-19T11:09:07.264Z,101059.47
2022-08-19T11:10:43.557Z,101067.03
2022-08-19T11:12:23.509Z,101046.81
2022-08-19T11:13:55.539Z,101052.78
2022-08-19T11:15:29.596Z,101054.47
2022-08-19T11:17:01.994Z,101056.53
2022-08-19T11:18:35.269Z,101061.97
2022-08-19T11:20:08.117Z,101061.69
2022-08-19T11:21:43.902Z,101054.03
2022-08-19T11:23:15.638Z,101053.84
2022-08-19T11:24:47.341Z,101048.69
2022-08-19T11:26:20.441Z,101058.19
2022-08-19T11:27:53.221Z,101054.88
2022-08-19T11:29:26.754Z,101055.97
2022-08-19T11:30:58.474Z,101063.16
2022-08-19T11:32:30.195Z,101060.09
2022-08-19T11:34:05.036Z,101054.63
2022-08-19T11:35:40.796Z,101055.00
2022-08-19T11:37:13.904Z,101047.28
2022-08-19T11:38:45.903Z,101039.56
2022-08-19T11:40:18.028Z,101046.88
2022-08-19T11:41:50.275Z,101043.72
2022-08-19T11:43:22.099Z,101035.88
2022-08-19T11:44:54.363Z,101039.88
2022-08-19T11:46:31.107Z,101035.50
2022-08-19T11:48:03.290Z,101040.19
2022-08-19T11:49:37.165Z,101039.50
2022-08-19T11:51:12.046Z,101044.91
2022-08-19T11:52:46.135Z,101031.88
2022-08-19T11:54:18.633Z,101024.53
2022-08-19T11:55:56.755Z,101035.66
2022-08-19T11:57:28.515Z,101025.16
2022-08-19T11:59:01.697Z,101022.22
2022-08-19T12:00:34.122Z,101037.47
2022-08-19T12:02:05.879Z,101031.84
2022-08-19T12:03:38.554Z,101037.56
2022-08-19T12:05:12.889Z,101042.97
2022-08-19T12:06:45.338Z,101036.19
2022-08-19T12:08:19.039Z,101033.09
2022-08-19T12:09:50.827Z,101041.84
2022-08-19T12:11:23.418Z,101035.81
2022-08-19T12:12:58.057Z,101040.84
2022-08-19T12:14:32.862Z,101033.75
2022-08-19T12:16:09.621Z,101033.28
2022-08-19T12:17:42.555Z,101031.03
2022-08-19T12:19:14.591Z,101030.78
2022-08-19T12:20:58.032Z,101030.34
2022-08-19T12:22:29.982Z,101023.25
2022-08-19T12:24:06.733Z,101024.63
2022-08-19T12:25:50.816Z,101020.13
2022-08-19T12:27:35.659Z,101020.88
2022-08-19T12:29:12.280Z,101021.03
2022-08-19T12:30:44.296Z,101021.22
2022-08-19T12:32:16.484Z,101018.94
2022-08-19T12:33:48.762Z,101015.84
2022-08-19T12:35:23.565Z,101018.69
2022-08-19T12:36:55.841Z,101007.53
2022-08-19T12:38:28.064Z,101018.59
2022-08-19T12:40:01.960Z,101012.69
2022-08-19T12:41:33.915Z,101009.22
2022-08-19T12:43:05.672Z,101010.31
2022-08-19T12:44:41.674Z,101007.53
2022-08-19T12:46:15.148Z,100999.19
2022-08-19T12:47:49.579Z,101009.00
2022-08-19T12:49:47.104Z,101003.78
2022-08-19T12:51:15.914Z,101003.59
2022-08-19T12:52:48.238Z,101003.06
2022-08-19T12:54:20.976Z,101007.22
2022-08-19T12:55:58.233Z,100993.50
2022-08-19T12:57:33.815Z,101002.03
2022-08-19T12:59:05.921Z,101001.69
2022-08-19T13:00:37.653Z,100998.19
2022-08-19T13:02:13.571Z,101002.19
2022-08-19T13:03:46.791Z,100997.28
2022-08-19T13:05:23.791Z,100997.94
2022-08-19T13:06:55.736Z,100999.56
2022-08-19T13:08:27.534Z,100994.75
2022-08-19T13:09:59.919Z,100995.50
2022-08-19T13:11:35.960Z,100992.38
2022-08-19T13:13:10.706Z,100997.69
2022-08-19T13:14:42.975Z,100994.56
2022-08-19T13:16:16.013Z,100994.34
2022-08-19T13:17:51.821Z,100997.69
2022-08-19T13:19:24.491Z,100990.72
2022-08-19T13:20:57.374Z,101000.22
2022-08-19T13:22:29.322Z,100989.59
2022-08-19T13:24:04.732Z,100989.72
2022-08-19T13:25:37.179Z,100985.38
2022-08-19T13:27:12.063Z,100985.63
2022-08-19T13:29:03.464Z,100984.50
2022-08-19T13:30:53.947Z,100986.13
2022-08-19T13:32:44.315Z,100984.78
2022-08-19T13:34:18.525Z,100979.03
2022-08-19T13:35:56.006Z,100977.25
2022-08-19T13:37:42.903Z,100988.00
2022-08-19T13:39:14.952Z,100976.50
2022-08-19T13:40:47.476Z,100982.81
2022-08-19T13:42:21.127Z,100960.44
2022-08-19T13:43:53.330Z,100966.41
2022-08-19T13:45:27.984Z,100958.47
2022-08-19T13:47:07.673Z,100963.53
2022-08-19T13:48:39.566Z,100963.19
2022-08-19T13:50:12.039Z,100969.25
2022-08-19T13:51:44.277Z,100966.13
2022-08-19T13:53:17.421Z,100967.34
2022-08-19T13:54:49.386Z,100963.56
2022-08-19T13:56:25.873Z,100976.41
2022-08-19T13:58:02.630Z,100955.75
2022-08-19T13:59:34.405Z,100960.34
2022-08-19T14:01:07.225Z,100962.44
2022-08-19T14:02:39.955Z,100953.53
2022-08-19T14:04:11.781Z,100953.16
2022-08-19T14:05:43.641Z,100964.38
2022-08-19T14:07:15.473Z,100955.09
2022-08-19T14:08:47.640Z,100957.16
2022-08-19T14:10:20.473Z,100956.78
2022-08-19T14:11:52.462Z,100962.47
2022-08-19T14:13:26.423Z,100961.22
2022-08-19T14:14:58.369Z,100957.38
2022-08-19T14:16:31.380Z,100956.69
2022-08-19T14:18:03.174Z,100947.88
2022-08-19T14:19:34.956Z,100949.28
2022-08-19T14:21:07.887Z,100956.88
2022-08-19T14:22:41.681Z,100958.94
2022-08-19T14:24:13.436Z,100957.66
2022-08-19T14:25:45.558Z,100949.72
2022-08-19T14:27:17.318Z,100960.66
2022-08-19T14:28:50.480Z,100960.88
2022-08-19T14:30:27.657Z,100957.00
2022-08-19T14:31:59.974Z,100958.91
2022-08-19T14:33:33.325Z,100961.97
2022-08-19T14:35:06.528Z,100955.19
2022-08-19T14:36:39.304Z,100956.50
2022-08-19T14:38:16.861Z,100962.69
2022-08-19T14:39:48.922Z,100949.50
2022-08-19T14:41:22.739Z,100957.72
2022-08-19T14:43:00.181Z,100960.47
2022-08-19T14:44:34.764Z,100949.66
2022-08-19T14:46:07.348Z,100960.09
2022-08-19T14:47:40.804Z,100952.22
2022-08-19T14:49:13.048Z,100950.69
2022-08-19T14:50:45.401Z,100957.81
2022-08-19T14:52:18.095Z,100959.09
2022-08-19T14:53:50.414Z,100956.72
2022-08-19T14:55:22.212Z,100954.44
2022-08-19T14:56:53.899Z,100947.72
2022-08-19T14:58:29.282Z,100956.31
2022-08-19T15:00:05.512Z,100963.03
2022-08-19T15:01:37.300Z,100962.34
2022-08-19T15:03:09.025Z,100963.03
2022-08-19T15:04:40.933Z,100966.28
2022-08-19T15:06:13.180Z,100965.97
2022-08-19T15:07:45.218Z,100969.66
2022-08-19T15:09:16.989Z,100970.41
2022-08-19T15:10:48.801Z,100975.31
2022-08-19T15:12:22.011Z,100975.41
2022-08-19T15:13:54.970Z,100980.16
2022-08-19T15:15:28.635Z,100976.88
2022-08-19T15:17:00.620Z,100979.50
2022-08-19T15:18:33.487Z,100981.00
2022-08-19T15:20:06.543Z,100983.50
2022-08-19T15:21:38.473Z,100992.59
2022-08-19T15:23:11.561Z,100993.84
2022-08-19T15:24:48.247Z,100994.84
2022-08-19T15:26:21.019Z,100995.22
2022-08-19T15:27:53.682Z,100992.41
2022-08-19T15:29:26.441Z,100994.97
2022-08-19T15:30:59.590Z,100991.50
2022-08-19T15:32:31.507Z,100996.75
2022-08-19T15:34:04.175Z,101001.56
2022-08-19T15:35:35.910Z,100995.28
2022-08-19T15:37:07.971Z,101002.81
2022-08-19T15:38:43.177Z,101011.63
2022-08-19T15:40:18.085Z,101003.25
2022-08-19T15:41:49.865Z,100992.56
2022-08-19T15:43:22.352Z,101007.97
2022-08-19T15:44:54.081Z,101004.81
2022-08-19T15:46:31.479Z,101008.44
2022-08-19T15:48:05.096Z,101001.59
2022-08-19T15:49:36.852Z,101007.56
2022-08-19T15:51:08.888Z,101007.25
2022-08-19T15:52:49.818Z,101014.75
2022-08-19T15:54:22.335Z,101008.94
2022-08-19T15:55:54.123Z,101007.84
2022-08-19T15:57:25.848Z,101014.69
2022-08-19T15:59:16.265Z,101006.03
2022-08-19T16:01:06.792Z,101010.84
2022-08-19T16:03:04.420Z,101010.00
2022-08-19T16:04:54.525Z,101010.41
2022-08-19T16:06:26.454Z,101015.09
2022-08-19T16:07:58.268Z,101009.66
2022-08-19T16:09:32.005Z,101021.38
2022-08-19T16:11:04.439Z,101022.66
2022-08-19T16:12:36.286Z,101012.44
2022-08-19T16:14:09.460Z,101012.34
2022-08-19T16:15:43.016Z,101022.78
2022-08-19T16:17:14.948Z,101022.94
2022-08-19T16:18:48.832Z,101021.22
2022-08-19T16:20:22.208Z,101024.56
2022-08-19T16:21:56.974Z,101023.81
2022-08-19T16:23:29.089Z,101022.69
2022-08-19T16:25:02.850Z,101023.22
2022-08-19T16:26:34.866Z,101021.84
2022-08-19T16:28:08.537Z,101031.53
2022-08-19T16:29:40.785Z,101029.38
2022-08-19T16:31:15.492Z,101030.84
2022-08-19T16:32:47.690Z,101025.09
2022-08-19T16:34:21.736Z,101023.00
2022-08-19T16:36:00.306Z,101028.69
2022-08-19T16:37:38.950Z,101029.06
2022-08-19T16:39:12.643Z,101031.25
2022-08-19T16:40:46.765Z,101031.25
2022-08-19T16:42:18.612Z,101043.81
2022-08-19T16:43:54.716Z,101037.88
2022-08-19T16:45:26.612Z,101034.78
2022-08-19T16:46:59.675Z,101039.44
2022-08-19T16:48:33.035Z,101044.13
2022-08-19T16:50:07.681Z,101047.94
2022-08-19T16:51:39.897Z,101042.44
2022-08-19T16:53:11.756Z,101043.44
2022-08-19T16:54:44.662Z,101044.53
2022-08-19T16:56:17.008Z,101051.38
2022-08-19T16:57:48.822Z,101041.53
2022-08-19T16:59:20.620Z,101040.44
2022-08-19T17:00:53.623Z,101044.84
2022-08-19T17:02:29.691Z,101043.75
2022-08-19T17:04:02.473Z,101036.94
2022-08-19T17:05:35.653Z,101038.13
2022-08-19T17:07:09.423Z,101039.44
2022-08-19T17:08:43.004Z,101032.19
2022-08-19T17:10:17.524Z,101041.13
2022-08-19T17:11:49.254Z,101034.78
2022-08-19T17:13:21.835Z,101033.63
2022-08-19T17:14:53.840Z,101034.59
2022-08-19T17:16:29.232Z,101030.94
2022-08-19T17:18:01.561Z,101029.63
2022-08-19T17:19:33.517Z,101023.69
2022-08-19T17:21:06.821Z,101022.84
2022-08-19T17:22:38.892Z,101021.44
2022-08-19T17:24:10.820Z,101023.91
2022-08-19T17:25:43.139Z,101018.50
2022-08-19T17:27:15.057Z,101019.03
2022-08-19T17:28:51.628Z,101023.81
2022-08-19T17:30:24.578Z,101025.97
2022-08-19T17:31:58.444Z,101018.34
2022-08-19T17:33:32.610Z,101019.41
2022-08-19T17:35:06.180Z,101019.97
2022-08-19T17:36:39.382Z,101023.66
2022-08-19T17:38:15.318Z,101018.88
2022-08-19T17:39:47.206Z,101019.56
2022-08-19T17:41:18.967Z,101016.94
2022-08-19T17:42:51.210Z,101019.56
2022-08-19T17:44:23.406Z,101017.75
2022-08-19T17:45:55.145Z,101020.16
2022-08-19T17:47:28.404Z,101016.28
2022-08-19T17:49:00.410Z,101015.44
2022-08-19T17:50:32.988Z,101012.13
2022-08-19T17:52:09.960Z,101016.91
2022-08-19T17:53:42.526Z,101009.84
2022-08-19T17:55:15.386Z,101015.25
2022-08-19T17:56:47.596Z,101011.63
2022-08-19T17:58:20.486Z,101013.47
2022-08-19T17:59:54.298Z,101011.53
2022-08-19T18:01:39.040Z,101017.13